createdAt,value
2023-05-06T00:00:06.962Z,95310.75
2023-05-06T00:02:37.282Z,95312.63
2023-05-06T00:05:06.207Z,95310.16
2023-05-06T00:07:34.496Z,95308.84
2023-05-06T00:10:02.854Z,95298.06
2023-05-06T00:12:31.710Z,95301.84
2023-05-06T00:14:59.907Z,95295.97
2023-05-06T00:17:28.221Z,95284.72
2023-05-06T00:19:58.831Z,95299.56
2023-05-06T00:22:27.074Z,95298.19
2023-05-06T00:24:55.256Z,95299.75
2023-05-06T00:27:23.474Z,95299.06
2023-05-06T00:29:51.690Z,95306.06
2023-05-06T00:32:20.000Z,95289.78
2023-05-06T00:34:48.500Z,95304.06
2023-05-06T00:37:18.126Z,95303.53
2023-05-06T00:39:46.359Z,95299.47
2023-05-06T00:42:14.679Z,95259.19
2023-05-06T00:44:42.917Z,95309.75
2023-05-06T00:47:11.190Z,95307.31
2023-05-06T00:49:39.458Z,95311.25
2023-05-06T00:52:08.031Z,95303.94
2023-05-06T00:54:37.845Z,95319.44
2023-05-06T00:57:06.351Z,95326.72
2023-05-06T00:59:34.744Z,95318.72
2023-05-06T01:02:03.087Z,95307.56
2023-05-06T01:04:31.495Z,95293.19
2023-05-06T01:07:09.790Z,95317.59
2023-05-06T01:09:43.901Z,95237.31
2023-05-06T01:12:18.485Z,95309.72
2023-05-06T01:14:57.313Z,95310.50
2023-05-06T01:17:28.779Z,95314.41
2023-05-06T01:20:01.829Z,95320.00
2023-05-06T01:22:31.821Z,95314.00
2023-05-06T01:25:01.774Z,95288.59
2023-05-06T01:27:30.265Z,95313.63
2023-05-06T01:29:59.980Z,95316.59
2023-05-06T01:32:37.702Z,95310.31
2023-05-06T01:35:16.832Z,95312.81
2023-05-06T01:37:52.932Z,95300.41
2023-05-06T01:40:26.416Z,95312.59
2023-05-06T01:42:55.800Z,95307.19
2023-05-06T01:45:28.956Z,95295.44
2023-05-06T01:47:58.179Z,95305.03
2023-05-06T01:50:27.201Z,95300.94
2023-05-06T01:52:59.265Z,95308.84
2023-05-06T01:55:29.255Z,95308.72
2023-05-06T01:57:57.833Z,95301.25
2023-05-06T02:00:26.702Z,95304.25
2023-05-06T02:02:55.202Z,95300.06
2023-05-06T02:05:23.594Z,95295.03
2023-05-06T02:07:51.950Z,95300.16
2023-05-06T02:10:20.418Z,95301.72
2023-05-06T02:12:50.255Z,95303.16
2023-05-06T02:15:18.629Z,95293.50
2023-05-06T02:17:46.952Z,95295.91
2023-05-06T02:20:15.200Z,95296.59
2023-05-06T02:22:43.481Z,95301.84
2023-05-06T02:25:11.921Z,95301.00
2023-05-06T02:27:40.302Z,95309.97
2023-05-06T02:30:13.067Z,95302.94
2023-05-06T02:32:41.383Z,95297.34
2023-05-06T02:35:10.835Z,95263.03
2023-05-06T02:37:39.289Z,95310.50
2023-05-06T02:40:09.139Z,95314.88
2023-05-06T02:42:37.379Z,95323.22
2023-05-06T02:45:06.403Z,95314.81
2023-05-06T02:47:36.141Z,95319.59
2023-05-06T02:50:04.929Z,95318.66
2023-05-06T02:52:34.650Z,95322.22
2023-05-06T02:55:03.251Z,95315.53
2023-05-06T02:57:31.491Z,95311.25
2023-05-06T02:59:59.859Z,95321.63
2023-05-06T03:02:28.083Z,95316.38
2023-05-06T03:04:57.735Z,95322.78
2023-05-06T03:07:26.042Z,95318.84
2023-05-06T03:09:54.429Z,95315.94
2023-05-06T03:12:22.664Z,95316.66
2023-05-06T03:14:50.897Z,95314.56
2023-05-06T03:17:19.158Z,95318.56
2023-05-06T03:19:47.409Z,95324.59
2023-05-06T03:22:17.109Z,95325.03
2023-05-06T03:24:45.313Z,95326.72
2023-05-06T03:27:13.587Z,95305.03
2023-05-06T03:29:41.863Z,95330.13
2023-05-06T03:32:10.095Z,95331.75
2023-05-06T03:34:38.361Z,95331.72
2023-05-06T03:37:06.646Z,95332.28
2023-05-06T03:39:36.290Z,95329.97
2023-05-06T03:42:05.923Z,95335.94
2023-05-06T03:44:35.395Z,95337.03
2023-05-06T03:47:03.636Z,95337.31
2023-05-06T03:49:31.920Z,95344.38
2023-05-06T03:52:00.877Z,95330.03
2023-05-06T03:54:29.311Z,95339.38
2023-05-06T03:56:58.909Z,95335.16
2023-05-06T03:59:27.290Z,95331.81
2023-05-06T04:01:56.424Z,95333.94
2023-05-06T04:04:25.414Z,95337.00
2023-05-06T04:06:53.628Z,95342.63
2023-05-06T04:09:21.943Z,95345.19
2023-05-06T04:11:50.431Z,95348.88
2023-05-06T04:14:20.068Z,95343.34
2023-05-06T04:16:48.295Z,95343.16
2023-05-06T04:19:17.809Z,95346.41
2023-05-06T04:21:46.172Z,95344.25
2023-05-06T04:24:16.142Z,95359.19
2023-05-06T04:26:44.413Z,95351.47
2023-05-06T04:29:12.765Z,95363.56
2023-05-06T04:31:42.485Z,95358.38
2023-05-06T04:34:11.358Z,95353.69
2023-05-06T04:36:40.670Z,95364.44
2023-05-06T04:39:10.522Z,95356.72
2023-05-06T04:41:38.849Z,95357.88
2023-05-06T04:44:07.228Z,95360.19
2023-05-06T04:46:36.145Z,95357.72
2023-05-06T04:49:05.753Z,95357.63
2023-05-06T04:51:34.063Z,95360.91
2023-05-06T04:54:02.290Z,95355.56
2023-05-06T04:56:30.485Z,95358.78
2023-05-06T04:58:58.714Z,95356.38
2023-05-06T05:01:27.121Z,95356.94
2023-05-06T05:03:55.484Z,95347.31
2023-05-06T05:06:25.226Z,95346.25
2023-05-06T05:08:55.230Z,95345.97
2023-05-06T05:11:23.718Z,95347.97
2023-05-06T05:13:54.282Z,95349.63
2023-05-06T05:16:23.661Z,95347.25
2023-05-06T05:18:51.911Z,95344.72
2023-05-06T05:21:21.227Z,95323.94
2023-05-06T05:23:50.902Z,95349.56
2023-05-06T05:26:25.552Z,95290.47
2023-05-06T05:28:53.826Z,95296.00
2023-05-06T05:31:22.103Z,95340.19
2023-05-06T05:33:50.474Z,95347.44
2023-05-06T05:36:18.761Z,95341.91
2023-05-06T05:38:47.972Z,95341.19
2023-05-06T05:41:17.770Z,95334.13
2023-05-06T05:43:46.031Z,95338.06
2023-05-06T05:46:14.450Z,95344.63
2023-05-06T05:48:43.422Z,95346.66
2023-05-06T05:51:12.082Z,95301.72
2023-05-06T05:53:40.427Z,95338.00
2023-05-06T05:56:09.022Z,95315.13
2023-05-06T05:58:38.779Z,95350.88
2023-05-06T06:01:07.080Z,95348.44
2023-05-06T06:03:35.449Z,95189.56
2023-05-06T06:06:03.829Z,95348.81
2023-05-06T06:08:32.624Z,95331.47
2023-05-06T06:11:02.172Z,95348.78
2023-05-06T06:13:30.547Z,95302.72
2023-05-06T06:16:00.941Z,95342.63
2023-05-06T06:18:29.312Z,95347.56
2023-05-06T06:20:57.641Z,95344.63
2023-05-06T06:23:26.289Z,95336.59
2023-05-06T06:25:54.472Z,95336.72
2023-05-06T06:28:22.859Z,95336.72
2023-05-06T06:30:51.094Z,95339.44
2023-05-06T06:33:20.787Z,95320.00
2023-05-06T06:35:49.113Z,95338.47
2023-05-06T06:38:17.460Z,95315.44
2023-05-06T06:40:45.954Z,95319.63
2023-05-06T06:43:14.230Z,95326.75
2023-05-06T06:45:42.655Z,95330.81
2023-05-06T06:48:11.536Z,95313.88
2023-05-06T06:50:41.375Z,95334.22
2023-05-06T06:53:11.919Z,95315.41
2023-05-06T06:55:40.192Z,95256.03
2023-05-06T06:58:08.549Z,95327.66
2023-05-06T07:00:36.937Z,95313.69
2023-05-06T07:03:05.416Z,95322.53
2023-05-06T07:05:33.746Z,95327.16
2023-05-06T07:08:03.620Z,95326.13
2023-05-06T07:10:32.033Z,95320.09
2023-05-06T07:13:00.352Z,95321.31
2023-05-06T07:15:28.686Z,95326.97
2023-05-06T07:17:57.033Z,95328.41
2023-05-06T07:20:27.470Z,95334.69
2023-05-06T07:22:55.891Z,95329.50
2023-05-06T07:25:25.706Z,95321.63
2023-05-06T07:27:54.085Z,95328.09
2023-05-06T07:30:23.674Z,95306.66
2023-05-06T07:32:52.030Z,95348.91
2023-05-06T07:35:20.500Z,95338.84
2023-05-06T07:37:48.832Z,95343.22
2023-05-06T07:40:17.268Z,95337.19
2023-05-06T07:42:46.958Z,95330.94
2023-05-06T07:45:15.425Z,95336.34
2023-05-06T07:47:43.825Z,95330.16
2023-05-06T07:50:12.486Z,95309.22
2023-05-06T07:52:40.842Z,95338.44
2023-05-06T07:55:11.028Z,95338.19
2023-05-06T07:57:39.466Z,95341.16
2023-05-06T08:00:10.769Z,95342.78
2023-05-06T08:02:44.488Z,95335.09
2023-05-06T08:05:13.489Z,95330.19
2023-05-06T08:07:42.528Z,95281.22
2023-05-06T08:10:11.699Z,95326.06
2023-05-06T08:12:39.953Z,95339.22
2023-05-06T08:15:11.476Z,95346.06
2023-05-06T08:17:40.278Z,95340.44
2023-05-06T08:20:10.638Z,95344.31
2023-05-06T08:22:39.555Z,95340.94
2023-05-06T08:25:09.033Z,95305.38
2023-05-06T08:27:37.846Z,95344.84
2023-05-06T08:30:06.982Z,95342.13
2023-05-06T08:32:36.998Z,95337.91
2023-05-06T08:35:05.665Z,95333.00
2023-05-06T08:37:34.160Z,95334.97
2023-05-06T08:40:02.456Z,95345.41
2023-05-06T08:42:32.205Z,95345.97
2023-05-06T08:45:00.863Z,95352.53
2023-05-06T08:47:29.267Z,95349.81
2023-05-06T08:49:58.928Z,95349.13
2023-05-06T08:52:28.216Z,95354.88
2023-05-06T08:55:01.738Z,95348.25
2023-05-06T08:57:31.874Z,95352.88
2023-05-06T09:00:00.565Z,95349.59
2023-05-06T09:02:29.247Z,95343.09
2023-05-06T09:04:58.950Z,95366.13
2023-05-06T09:07:27.208Z,95366.66
2023-05-06T09:09:55.590Z,95369.34
2023-05-06T09:12:25.359Z,95356.91
2023-05-06T09:14:55.678Z,95357.09
2023-05-06T09:17:26.658Z,95352.53
2023-05-06T09:19:57.224Z,95366.56
2023-05-06T09:22:28.688Z,95360.41
2023-05-06T09:24:57.851Z,95362.03
2023-05-06T09:27:27.369Z,95362.16
2023-05-06T09:30:02.872Z,95362.31
2023-05-06T09:32:31.473Z,95363.34
2023-05-06T09:35:00.496Z,95360.84
2023-05-06T09:37:30.474Z,95351.97
2023-05-06T09:40:04.965Z,95304.41
2023-05-06T09:42:33.342Z,95348.13
2023-05-06T09:45:03.661Z,95338.38
2023-05-06T09:47:35.592Z,95311.56
2023-05-06T09:50:04.674Z,95325.31
2023-05-06T09:52:34.865Z,95337.88
2023-05-06T09:55:05.144Z,95319.56
2023-05-06T09:57:34.118Z,95332.78
2023-05-06T10:00:04.244Z,95338.00
2023-05-06T10:02:33.143Z,95331.06
2023-05-06T10:05:06.032Z,95335.16
2023-05-06T10:07:37.643Z,95335.00
2023-05-06T10:10:09.700Z,95334.44
2023-05-06T10:12:38.412Z,95338.31
2023-05-06T10:15:08.282Z,95332.31
2023-05-06T10:17:38.700Z,95325.63
2023-05-06T10:20:10.061Z,95325.78
2023-05-06T10:22:49.522Z,95328.47
2023-05-06T10:25:31.049Z,95341.75
2023-05-06T10:28:00.273Z,95318.63
2023-05-06T10:30:31.575Z,95328.47
2023-05-06T10:33:04.748Z,95332.94
2023-05-06T10:35:42.587Z,95327.22
2023-05-06T10:38:16.370Z,95325.19
2023-05-06T10:40:45.720Z,95333.53
2023-05-06T10:43:29.212Z,95331.31
2023-05-06T10:46:01.756Z,95332.16
2023-05-06T10:48:30.489Z,95327.44
2023-05-06T10:51:22.996Z,95332.59
2023-05-06T10:54:00.380Z,95337.97
2023-05-06T10:56:28.709Z,95329.69
2023-05-06T10:58:57.772Z,95333.44
2023-05-06T11:01:28.466Z,95336.53
2023-05-06T11:03:57.009Z,95336.53
2023-05-06T11:06:46.765Z,95337.28
2023-05-06T11:09:21.662Z,95344.03
2023-05-06T11:11:52.425Z,95341.78
2023-05-06T11:14:28.907Z,95342.91
2023-05-06T11:16:59.179Z,95338.84
2023-05-06T11:19:28.779Z,95342.19
2023-05-06T11:21:58.937Z,95353.38
2023-05-06T11:24:30.166Z,95353.69
2023-05-06T11:27:04.339Z,95344.13
2023-05-06T11:29:33.219Z,95306.94
2023-05-06T11:32:01.494Z,95350.00
2023-05-06T11:34:31.285Z,95344.09
2023-05-06T11:37:02.755Z,95340.50
2023-05-06T11:39:39.936Z,95331.31
2023-05-06T11:42:09.197Z,95342.97
2023-05-06T11:44:39.509Z,95349.16
2023-05-06T11:47:09.023Z,95350.22
2023-05-06T11:49:38.782Z,95340.91
2023-05-06T11:52:07.181Z,95340.28
2023-05-06T11:54:39.704Z,95349.38
2023-05-06T11:57:08.308Z,95344.44
2023-05-06T11:59:38.646Z,95354.25
2023-05-06T12:02:08.272Z,95349.22
2023-05-06T12:04:41.459Z,95356.81
2023-05-06T12:07:11.214Z,95350.09
2023-05-06T12:09:43.078Z,95348.19
2023-05-06T12:12:12.513Z,95332.59
2023-05-06T12:14:41.311Z,95342.44
2023-05-06T12:17:09.791Z,95337.75
2023-05-06T12:19:38.102Z,95312.38
2023-05-06T12:22:16.586Z,95339.44
2023-05-06T12:24:46.318Z,95325.47
2023-05-06T12:27:14.751Z,95333.41
2023-05-06T12:29:54.061Z,95266.66
2023-05-06T12:32:22.331Z,95319.63
2023-05-06T12:34:50.649Z,95328.13
2023-05-06T12:37:26.633Z,95270.00
2023-05-06T12:39:58.754Z,95327.44
2023-05-06T12:42:28.269Z,95325.84
2023-05-06T12:44:57.062Z,95325.22
2023-05-06T12:47:26.906Z,95313.16
2023-05-06T12:49:58.468Z,95309.63
2023-05-06T12:52:28.799Z,95314.88
2023-05-06T12:54:58.668Z,95323.28
2023-05-06T12:57:27.148Z,95324.13
2023-05-06T12:59:56.573Z,95319.94
2023-05-06T13:02:24.974Z,95331.91
2023-05-06T13:04:53.334Z,95320.69
2023-05-06T13:07:22.735Z,95323.81
2023-05-06T13:09:50.998Z,95328.72
2023-05-06T13:12:20.662Z,95330.34
2023-05-06T13:14:48.906Z,95326.75
2023-05-06T13:17:17.375Z,95314.81
2023-05-06T13:19:45.778Z,95313.34
2023-05-06T13:22:14.103Z,95323.47
2023-05-06T13:24:42.382Z,95319.78
2023-05-06T13:27:10.727Z,95316.13
2023-05-06T13:29:40.622Z,95305.22
2023-05-06T13:32:09.173Z,95315.84
2023-05-06T13:34:37.692Z,95324.63
2023-05-06T13:37:06.023Z,95314.09
2023-05-06T13:39:34.422Z,95305.41
2023-05-06T13:42:03.110Z,95312.47
2023-05-06T13:44:32.619Z,95315.28
2023-05-06T13:47:02.297Z,95313.72
2023-05-06T13:49:30.608Z,95312.50
2023-05-06T13:51:59.074Z,95304.84
2023-05-06T13:54:27.443Z,95314.88
2023-05-06T13:56:55.685Z,95312.38
2023-05-06T13:59:23.992Z,95313.66
2023-05-06T14:01:54.224Z,95308.59
2023-05-06T14:04:24.046Z,95315.53
2023-05-06T14:06:52.373Z,95307.69
2023-05-06T14:09:21.013Z,95315.38
2023-05-06T14:11:49.265Z,95286.66
2023-05-06T14:14:17.545Z,95315.53
2023-05-06T14:16:46.001Z,95313.97
2023-05-06T14:19:14.376Z,95313.69
2023-05-06T14:21:44.061Z,95312.72
2023-05-06T14:24:12.670Z,95310.72
2023-05-06T14:26:41.612Z,95311.69
2023-05-06T14:29:10.019Z,95308.72
2023-05-06T14:31:38.254Z,95312.56
2023-05-06T14:34:06.707Z,95310.53
2023-05-06T14:36:34.995Z,95294.97
2023-05-06T14:39:04.697Z,95302.00
2023-05-06T14:41:33.002Z,95298.72
2023-05-06T14:44:01.265Z,95294.69
2023-05-06T14:46:29.925Z,95317.31
2023-05-06T14:48:58.399Z,95318.94
2023-05-06T14:51:26.676Z,95318.84
2023-05-06T14:53:54.904Z,95320.72
2023-05-06T14:56:24.693Z,95321.66
2023-05-06T14:58:53.006Z,95322.22
2023-05-06T15:01:21.332Z,95318.16
2023-05-06T15:03:50.826Z,95306.13
2023-05-06T15:06:19.020Z,95318.72
2023-05-06T15:08:47.315Z,95305.03
2023-05-06T15:11:15.721Z,95302.78
2023-05-06T15:13:45.390Z,95305.59
2023-05-06T15:16:13.682Z,95311.09
2023-05-06T15:18:42.977Z,95301.72
2023-05-06T15:21:13.396Z,95299.91
2023-05-06T15:23:41.700Z,95299.47
2023-05-06T15:26:09.960Z,95295.69
2023-05-06T15:28:38.288Z,95301.72
2023-05-06T15:31:08.590Z,95290.03
2023-05-06T15:33:36.905Z,95290.91
2023-05-06T15:36:05.340Z,95296.13
2023-05-06T15:39:00.160Z,95283.88
2023-05-06T15:41:31.983Z,95297.81
2023-05-06T15:44:01.370Z,95289.34
2023-05-06T15:46:32.027Z,95291.47
2023-05-06T15:49:31.959Z,95297.69
2023-05-06T15:51:49.851Z,95291.63
2023-05-06T15:54:19.160Z,95274.78
2023-05-06T15:56:47.722Z,95279.22
2023-05-06T15:59:16.289Z,95305.81
2023-05-06T16:04:17.550Z,95294.59
2023-05-06T16:06:46.076Z,95291.69
2023-05-06T16:09:14.392Z,95286.41
2023-05-06T16:11:42.762Z,95290.06
2023-05-06T16:14:11.041Z,95276.00
2023-05-06T16:16:39.351Z,95284.72
2023-05-06T16:19:09.289Z,95292.06
2023-05-06T16:21:37.627Z,95292.41
2023-05-06T16:24:06.188Z,95304.78
2023-05-06T16:26:34.417Z,95299.31
2023-05-06T16:29:02.710Z,95305.09
2023-05-06T16:31:31.331Z,95302.50
2023-05-06T16:33:59.507Z,95306.34
2023-05-06T16:36:29.211Z,95307.88
2023-05-06T16:38:57.595Z,95311.34
2023-05-06T16:41:26.002Z,95300.66
2023-05-06T16:43:55.092Z,95314.91
2023-05-06T16:46:24.699Z,95314.44
2023-05-06T16:48:53.987Z,95314.69
2023-05-06T16:51:22.470Z,95323.09
2023-05-06T16:53:52.195Z,95323.75
2023-05-06T16:56:20.516Z,95310.84
2023-05-06T16:58:48.717Z,95315.19
2023-05-06T17:01:17.014Z,95335.88
2023-05-06T17:03:45.764Z,95335.22
2023-05-06T17:06:14.673Z,95332.03
2023-05-06T17:08:43.272Z,95333.41
2023-05-06T17:11:12.844Z,95343.88
2023-05-06T17:13:41.143Z,95341.22
2023-05-06T17:16:09.675Z,95338.84
2023-05-06T17:18:38.075Z,95339.59
2023-05-06T17:21:08.819Z,95348.16
2023-05-06T17:23:37.086Z,95327.50
2023-05-06T17:26:09.991Z,95344.69
2023-05-06T17:28:40.288Z,95352.44
2023-05-06T17:31:08.607Z,95348.31
2023-05-06T17:33:36.949Z,95364.75
2023-05-06T17:36:05.723Z,95366.47
2023-05-06T17:38:34.208Z,95325.25
2023-05-06T17:41:02.486Z,95369.78
2023-05-06T17:43:30.781Z,95377.47
2023-05-06T17:46:00.523Z,95373.00
2023-05-06T17:48:28.767Z,95380.53
2023-05-06T17:51:02.071Z,95376.69
2023-05-06T17:53:32.402Z,95383.78
2023-05-06T17:56:00.643Z,95384.66
2023-05-06T17:58:28.964Z,95387.75
2023-05-06T18:00:57.579Z,95390.28
2023-05-06T18:03:27.366Z,95221.22
2023-05-06T18:05:55.910Z,95393.97
2023-05-06T18:08:42.740Z,95397.66
2023-05-06T18:11:11.111Z,95397.00
2023-05-06T18:13:40.267Z,95396.16
2023-05-06T18:16:09.286Z,95349.44
2023-05-06T18:18:38.950Z,95405.25
2023-05-06T18:21:07.321Z,95402.66
2023-05-06T18:23:35.573Z,95404.63
2023-05-06T18:26:05.876Z,95414.44
2023-05-06T18:28:37.987Z,95418.63
2023-05-06T18:31:06.362Z,95413.91
2023-05-06T18:33:35.727Z,95415.75
2023-05-06T18:36:05.719Z,95422.50
2023-05-06T18:38:34.016Z,95427.47
2023-05-06T18:41:03.216Z,95430.25
2023-05-06T18:43:31.564Z,95431.53
2023-05-06T18:45:59.911Z,95434.81
2023-05-06T18:48:30.979Z,95436.28
2023-05-06T18:51:12.636Z,95403.16
2023-05-06T18:53:41.128Z,95435.91
2023-05-06T18:56:10.166Z,95434.09
2023-05-06T18:58:39.970Z,95448.34
2023-05-06T19:01:09.634Z,95441.13
2023-05-06T19:03:38.721Z,95447.75
2023-05-06T19:06:09.301Z,95449.25
2023-05-06T19:08:39.028Z,95449.09
2023-05-06T19:11:07.375Z,95436.50
2023-05-06T19:13:35.966Z,95443.25
2023-05-06T19:16:04.208Z,95446.66
2023-05-06T19:18:32.479Z,95455.78
2023-05-06T19:21:00.992Z,95454.50
2023-05-06T19:23:29.274Z,95453.00
2023-05-06T19:25:58.883Z,95459.06
2023-05-06T19:28:27.198Z,95445.19
2023-05-06T19:30:55.520Z,95456.28
2023-05-06T19:33:23.881Z,95462.63
2023-05-06T19:36:09.526Z,95462.97
2023-05-06T19:38:38.663Z,95458.09
2023-05-06T19:41:08.592Z,95466.09
2023-05-06T19:43:42.524Z,95470.97
2023-05-06T19:46:13.772Z,95462.13
2023-05-06T19:48:42.037Z,95464.53
2023-05-06T19:51:10.410Z,95444.97
2023-05-06T19:53:38.662Z,95470.09
2023-05-06T19:56:12.423Z,95483.81
2023-05-06T19:58:41.101Z,95483.16
2023-05-06T20:01:09.530Z,95489.75
2023-05-06T20:03:38.138Z,95480.84
2023-05-06T20:06:06.649Z,95493.75
2023-05-06T20:08:35.508Z,95493.56
2023-05-06T20:11:03.928Z,95497.50
2023-05-06T20:13:33.827Z,95492.34
2023-05-06T20:16:02.181Z,95493.44
2023-05-06T20:18:32.222Z,95231.19
2023-05-06T20:21:00.464Z,95496.50
2023-05-06T20:23:28.744Z,95501.66
2023-05-06T20:25:57.084Z,95495.22
2023-05-06T20:28:25.461Z,95504.31
2023-05-06T20:30:55.651Z,95501.84
2023-05-06T20:33:23.891Z,95508.97
2023-05-06T20:35:52.463Z,95512.25
2023-05-06T20:38:20.826Z,95517.28
2023-05-06T20:40:49.292Z,95508.38
2023-05-06T20:43:17.865Z,95502.63
2023-05-06T20:45:46.113Z,95503.91
2023-05-06T20:48:15.926Z,95510.44
2023-05-06T20:50:44.247Z,95522.41
2023-05-06T20:53:12.546Z,95531.91
2023-05-06T20:55:40.920Z,95525.69
2023-05-06T20:58:09.319Z,95535.75
2023-05-06T21:00:37.636Z,95431.44
2023-05-06T21:03:06.102Z,95539.75
2023-05-06T21:05:35.934Z,95540.34
2023-05-06T21:08:04.302Z,95533.25
2023-05-06T21:10:32.587Z,95537.88
2023-05-06T21:13:01.491Z,95511.38
2023-05-06T21:15:29.839Z,95517.50
2023-05-06T21:17:58.300Z,95515.31
2023-05-06T21:20:26.736Z,95535.88
2023-05-06T21:22:56.584Z,95539.47
2023-05-06T21:25:25.032Z,95540.56
2023-05-06T21:27:53.340Z,95531.81
2023-05-06T21:30:23.234Z,95539.38
2023-05-06T21:32:51.452Z,95536.94
2023-05-06T21:35:19.717Z,95532.16
2023-05-06T21:37:48.019Z,95520.72
2023-05-06T21:40:17.806Z,95540.19
2023-05-06T21:42:46.159Z,95540.28
2023-05-06T21:45:16.244Z,95542.00
2023-05-06T21:47:45.331Z,95545.34
2023-05-06T21:50:13.982Z,95535.59
2023-05-06T21:52:42.346Z,95545.75
2023-05-06T21:55:11.509Z,95546.16
2023-05-06T21:57:41.528Z,95541.75
2023-05-06T22:00:12.419Z,95550.84
2023-05-06T22:02:41.409Z,95499.06
2023-05-06T22:05:10.201Z,95550.88
2023-05-06T22:07:38.707Z,95561.97
2023-05-06T22:10:07.960Z,95556.69
2023-05-06T22:12:36.620Z,95566.22
2023-05-06T22:15:07.537Z,95559.03
2023-05-06T22:17:35.984Z,95564.00
2023-05-06T22:20:04.584Z,95563.06
2023-05-06T22:22:33.318Z,95557.94
2023-05-06T22:25:01.802Z,95561.69
2023-05-06T22:27:30.311Z,95565.09
2023-05-06T22:29:58.522Z,95567.41
2023-05-06T22:32:28.283Z,95553.88
2023-05-06T22:34:56.565Z,95540.56
2023-05-06T22:37:24.813Z,95568.81
2023-05-06T22:39:53.418Z,95564.59
2023-05-06T22:42:21.816Z,95556.38
2023-05-06T22:44:50.075Z,95531.16
2023-05-06T22:47:19.880Z,95564.88
2023-05-06T22:49:49.538Z,95555.75
2023-05-06T22:52:19.247Z,95560.78
2023-05-06T22:54:47.627Z,95549.00
2023-05-06T22:57:16.163Z,95543.69
2023-05-06T22:59:44.507Z,95552.81
2023-05-06T23:02:12.796Z,95552.06
2023-05-06T23:04:41.446Z,95541.22
2023-05-06T23:07:11.126Z,95543.31
2023-05-06T23:09:39.382Z,95543.16
2023-05-06T23:12:07.801Z,95541.06
2023-05-06T23:14:36.040Z,95543.31
2023-05-06T23:17:04.331Z,95542.09
2023-05-06T23:19:32.745Z,95542.53
2023-05-06T23:22:00.950Z,95538.78
2023-05-06T23:24:30.603Z,95502.22
2023-05-06T23:26:58.832Z,95522.94
2023-05-06T23:29:27.080Z,95532.44
2023-05-06T23:31:55.343Z,95537.19
2023-05-06T23:34:23.569Z,95540.31
2023-05-06T23:36:52.011Z,95537.28
2023-05-06T23:39:20.212Z,95529.75
2023-05-06T23:41:49.842Z,95528.22
2023-05-06T23:44:18.864Z,95524.59
2023-05-06T23:46:47.247Z,95525.78
2023-05-06T23:49:15.568Z,95524.13
2023-05-06T23:51:43.891Z,95525.03
2023-05-06T23:54:12.185Z,95527.75
2023-05-06T23:56:40.463Z,95523.72
2023-05-06T23:59:10.095Z,95525.50
